Monday, June 25, 2018, 12:20 AM EDT
Back to Local

KAUG, Augusta State Airport

Location: Augusta, ME, United States Lat: 44.317
Local Time: 12:20 AM EDT ( 4:20 GMT) Lon: -69.8
Time Zone: US/Eastern Elev: 351 ft

Show me the last for .
Show Decoded

2018-06-24 23:53 METAR KAUG 250353Z AUTO 32003KT 10SM OVC070 18/17 A2982 RMK AO2 SLP097 T01830167
                 =
2018-06-24 22:53 METAR KAUG 250253Z AUTO 00000KT 10SM OVC080 18/16 A2983 RMK AO2 SLP100 T01830161
                 50002 =
2018-06-24 21:53 METAR KAUG 250153Z AUTO 00000KT 10SM OVC075 19/16 A2983 RMK AO2 SLP101 T01890161
                 =
2018-06-24 20:53 METAR KAUG 250053Z AUTO 00000KT 9SM OVC070 19/16 A2982 RMK AO2 SLP098 T01940161
                 =
2018-06-24 19:53 METAR KAUG 242353Z AUTO 00000KT 10SM OVC070 20/15 A2982 RMK AO2 SLP099 T02000150
                 10222 20200 53005 =
2018-06-24 18:53 METAR KAUG 242253Z AUTO 32004KT 10SM FEW039 OVC060 21/15 A2982 RMK AO2 SLP097
                 T02060150 =
2018-06-24 17:53 METAR KAUG 242153Z AUTO 00000KT 10SM OVC042 21/14 A2981 RMK AO2 SLP095 T02060144
                 =
2018-06-24 16:53 METAR KAUG 242053Z AUTO 32004KT 10SM OVC040 21/14 A2981 RMK AO2 SLP094 T02060144
                 53006 =
2018-06-24 15:53 METAR KAUG 241953Z AUTO 35006KT 10SM OVC035 21/14 A2980 RMK AO2 SLP091 T02110139
                 =
2018-06-24 15:23 METAR KAUG 241923Z AUTO 34004KT 10SM OVC031 22/14 A2980 RMK AO2 T02170139 =
2018-06-24 14:53 METAR KAUG 241853Z AUTO 35005KT 10SM OVC029 22/14 A2979 RMK AO2 SLP089 T02170144
                 =
2018-06-24 13:53 METAR KAUG 241753Z AUTO 34006KT 10SM OVC035 22/14 A2979 RMK AO2 SLP088 T02170144
                 10222 20133 58007 =
2018-06-24 12:53 METAR KAUG 241653Z AUTO VRB04KT 10SM BKN031 22/13 A2980 RMK AO2 SLP092 T02170133
                 =
2018-06-24 12:16 METAR KAUG 241616Z AUTO VRB05KT 10SM BKN027 BKN050 21/14 A2980 RMK AO2 T02060144
                 =
2018-06-24 11:53 METAR KAUG 241553Z AUTO VRB04KT 10SM SCT020 BKN055 21/14 A2981 RMK AO2 SLP094
                 T02060139 =
2018-06-24 10:53 METAR KAUG 241453Z AUTO VRB04KT 10SM FEW012 OVC042 18/14 A2981 RMK AO2 SLP095
                 T01830144 51008 =
2018-06-24 09:53 METAR KAUG 241353Z AUTO 00000KT 10SM BKN011 OVC041 17/13 A2981 RMK AO2 SLP094
                 T01670133 =
2018-06-24 09:24 METAR KAUG 241324Z AUTO VRB05KT 10SM BKN010 OVC055 16/13 A2980 RMK AO2 T01610133
                 =
2018-06-24 08:53 METAR KAUG 241253Z AUTO 26003KT 10SM SCT008 OVC055 15/13 A2979 RMK AO2 SLP087
                 T01500128 =
2018-06-24 08:34 METAR KAUG 241234Z AUTO VRB03KT 10SM BKN008 OVC038 14/13 A2979 RMK AO2 T01440128
                 =
2018-06-24 07:53 METAR KAUG 241153Z AUTO 00000KT 10SM SCT007 OVC041 13/12 A2980 RMK AO2 SLP092
                 60000 70048 T01330122 10133 20117 53006 =
2018-06-24 06:53 METAR KAUG 241053Z AUTO VRB03KT 10SM FEW004 BKN032 OVC040 13/12 A2979 RMK AO2
                 SLP088 T01280117 =
2018-06-24 06:38 METAR KAUG 241038Z AUTO 22004KT 10SM SCT003 OVC030 12/12 A2979 RMK AO2 T01220117
                 =
2018-06-24 06:01 METAR KAUG 241001Z AUTO 00000KT 10SM BKN002 OVC035 12/12 A2977 RMK AO2 T01220117
                 =
2018-06-24 05:53 METAR KAUG 240953Z AUTO 00000KT 10SM SCT002 OVC035 12/12 A2977 RMK AO2 SLP081
                 T01220117 =
2018-06-24 05:46 METAR KAUG 240946Z AUTO 00000KT 10SM SCT002 OVC034 12/12 A2978 RMK AO2 T01220117
                 =
2018-06-24 04:53 METAR KAUG 240853Z AUTO 00000KT 10SM BKN004 OVC043 12/12 A2978 RMK AO2 SLP085
                 60000 T01220117 56008 =
2018-06-24 04:35 METAR KAUG 240835Z AUTO 00000KT 10SM FEW005 SCT028 BKN044 12/12 A2978 RMK AO2
                 T01220117 =
2018-06-24 04:25 METAR KAUG 240825Z AUTO 18003KT 10SM FEW005 BKN029 12/12 A2978 RMK AO2 T01220117
                 =
2018-06-24 04:09 METAR KAUG 240809Z AUTO 00000KT 10SM FEW002 SCT022 BKN032 12/12 A2978 RMK AO2
                 T01220117 =
2018-06-24 03:53 METAR KAUG 240753Z AUTO 00000KT 10SM FEW002 BKN023 12/12 A2978 RMK AO2 SLP086
                 T01220117 =
2018-06-24 02:53 METAR KAUG 240653Z AUTO 00000KT 10SM SCT003 BKN016 OVC023 12/11 A2979 RMK AO2
                 RAE40 SLP088 P0000 T01170111 =
2018-06-24 02:34 METAR KAUG 240634Z AUTO 00000KT 10SM -RA SCT002 BKN016 OVC021 12/12 A2980 RMK
                 AO2 P0000 T01170117 =
2018-06-24 02:26 METAR KAUG 240626Z AUTO 20003KT 10SM -RA BKN002 OVC021 12/11 A2980 RMK AO2 P0000
                 T01170111 =
2018-06-24 01:53 METAR KAUG 240553Z AUTO 34003KT 10SM -RA FEW002 SCT021 OVC028 12/11 A2980 RMK
                 AO2 RAB44 SLP093 P0000 60023 T01170111 10117 20111 58018 =
2018-06-24 01:09 METAR KAUG 240509Z AUTO 33003KT 6SM BR SCT003 OVC017 12/11 A2983 RMK AO2
                 T01170111 =
2018-06-24 00:53 METAR KAUG 240453Z AUTO 31003KT 7SM SCT003 OVC014 11/11 A2983 RMK AO2 SLP103
                 T01110111 402110111 =
2018-06-24 00:27 METAR KAUG 240427Z AUTO 33004KT 5SM BR SCT002 OVC014 11/11 A2984 RMK AO2
                 T01110111 =

Support USWX by starting your Amazon purchase here.